Time,TemperatureF,DewpointF,PressureIn,WindDirection,WindDirectionDegrees,WindSpeedMPH,WindSpeedGustMPH,Humidity,HourlyPrecipIn,Conditions,Clouds,dailyrainin,SoftwareType,DateUTC
2013-06-12 00:42:00,68.0,59.0,29.64,ESE,112,6.0,6.0,73,0.00,,,0.00,TxWx,2013-06-12 04:42:00,
2013-06-12 00:47:00,68.0,59.0,29.64,SSW,202,2.0,3.0,72,0.00,,,0.00,TxWx,2013-06-12 04:47:00,
2013-06-12 00:52:00,68.0,59.0,29.63,ESE,112,3.0,3.0,72,0.00,,,0.00,TxWx,2013-06-12 04:52:00,
2013-06-12 00:57:00,68.0,59.0,29.64,East,90,3.0,5.0,72,0.00,,,0.00,TxWx,2013-06-12 04:57:00,
2013-06-12 01:02:00,68.0,59.0,29.64,East,90,3.0,6.0,72,0.00,,,0.00,TxWx,2013-06-12 05:02:00,
2013-06-12 01:08:00,68.0,59.0,29.64,SE,135,6.0,6.0,72,0.00,,,0.00,TxWx,2013-06-12 05:08:00,
2013-06-12 01:13:00,68.0,58.0,29.64,ESE,112,4.0,6.0,72,0.00,,,0.00,TxWx,2013-06-12 05:13:00,
2013-06-12 01:18:00,68.0,58.0,29.64,East,90,3.0,7.0,71,0.00,,,0.00,TxWx,2013-06-12 05:18:00,
2013-06-12 01:23:00,68.0,58.0,29.64,SE,135,11.0,11.0,70,0.00,,,0.00,TxWx,2013-06-12 05:23:00,
2013-06-12 01:28:00,68.0,57.0,29.64,SE,135,5.0,6.0,69,0.00,,,0.00,TxWx,2013-06-12 05:28:00,
2013-06-12 01:34:00,68.0,57.0,29.64,SE,135,8.0,10.0,69,0.00,,,0.00,TxWx,2013-06-12 05:34:00,
2013-06-12 01:39:00,68.0,57.0,29.64,SE,135,5.0,8.0,68,0.00,,,0.00,TxWx,2013-06-12 05:39:00,
2013-06-12 01:44:00,68.0,57.0,29.64,East,90,4.0,4.0,68,0.00,,,0.00,TxWx,2013-06-12 05:44:00,
2013-06-12 01:49:00,68.0,57.0,29.63,ENE,67,10.0,11.0,68,0.00,,,0.00,TxWx,2013-06-12 05:49:00,
2013-06-12 01:55:00,68.0,57.0,29.63,SSE,157,12.0,12.0,67,0.00,,,0.00,TxWx,2013-06-12 05:55:00,
2013-06-12 02:00:00,68.0,56.0,29.63,ESE,112,5.0,8.0,67,0.00,,,0.00,TxWx,2013-06-12 06:00:00,
2013-06-12 02:05:00,68.0,57.0,29.63,South,180,8.0,8.0,67,0.00,,,0.00,TxWx,2013-06-12 06:05:00,
2013-06-12 02:10:00,68.0,56.0,29.63,East,90,5.0,7.0,67,0.00,,,0.00,TxWx,2013-06-12 06:10:00,
2013-06-12 02:15:00,68.0,56.0,29.63,ENE,67,8.0,14.0,67,0.00,,,0.00,TxWx,2013-06-12 06:15:00,
2013-06-12 02:20:00,68.0,56.0,29.64,ENE,67,5.0,7.0,67,0.00,,,0.00,TxWx,2013-06-12 06:20:00,
2013-06-12 02:26:00,68.0,56.0,29.63,SE,135,6.0,6.0,67,0.00,,,0.00,TxWx,2013-06-12 06:26:00,
2013-06-12 02:31:00,67.0,55.0,29.63,East,90,8.0,8.0,67,0.00,,,0.00,TxWx,2013-06-12 06:31:00,
2013-06-12 02:36:00,67.0,56.0,29.63,ESE,112,6.0,8.0,67,0.00,,,0.00,TxWx,2013-06-12 06:36:00,
2013-06-12 02:41:00,67.0,55.0,29.63,NE,45,7.0,7.0,67,0.00,,,0.00,TxWx,2013-06-12 06:41:00,
2013-06-12 02:46:00,67.0,56.0,29.63,East,90,5.0,5.0,67,0.00,,,0.00,TxWx,2013-06-12 06:46:00,
2013-06-12 02:51:00,67.0,56.0,29.63,NNE,22,5.0,7.0,67,0.00,,,0.00,TxWx,2013-06-12 06:51:00,
2013-06-12 02:56:00,67.0,56.0,29.63,East,90,5.0,5.0,67,0.00,,,0.00,TxWx,2013-06-12 06:56:00,
2013-06-12 03:01:00,67.0,56.0,29.63,ESE,112,8.0,9.0,67,0.00,,,0.00,TxWx,2013-06-12 07:01:00,
2013-06-12 03:07:00,67.0,56.0,29.63,East,90,4.0,4.0,67,0.00,,,0.00,TxWx,2013-06-12 07:07:00,
2013-06-12 03:12:00,67.0,56.0,29.63,East,90,6.0,6.0,68,0.00,,,0.00,TxWx,2013-06-12 07:12:00,
2013-06-12 03:17:00,66.0,55.0,29.63,South,180,2.0,4.0,68,0.00,,,0.00,TxWx,2013-06-12 07:17:00,
2013-06-12 03:23:00,66.0,55.0,29.63,South,180,6.0,6.0,68,0.00,,,0.00,TxWx,2013-06-12 07:23:00,
2013-06-12 03:28:00,66.0,55.0,29.64,SE,135,7.0,8.0,68,0.00,,,0.00,TxWx,2013-06-12 07:28:00,
2013-06-12 03:33:00,66.0,55.0,29.64,SE,135,10.0,11.0,68,0.00,,,0.00,TxWx,2013-06-12 07:33:00,
2013-06-12 03:38:00,66.0,55.0,29.64,ENE,67,7.0,7.0,69,0.00,,,0.00,TxWx,2013-06-12 07:38:00,
2013-06-12 03:43:00,66.0,55.0,29.64,ENE,67,6.0,6.0,69,0.00,,,0.00,TxWx,2013-06-12 07:43:00,
2013-06-12 03:49:00,66.0,55.0,29.64,SSE,157,3.0,5.0,69,0.00,,,0.00,TxWx,2013-06-12 07:49:00,
2013-06-12 03:54:00,66.0,55.0,29.65,East,90,5.0,6.0,69,0.00,,,0.00,TxWx,2013-06-12 07:54:00,
2013-06-12 03:59:00,66.0,55.0,29.65,East,90,4.0,4.0,69,0.00,,,0.00,TxWx,2013-06-12 07:59:00,
2013-06-12 04:04:00,66.0,55.0,29.65,East,90,8.0,11.0,69,0.00,,,0.00,TxWx,2013-06-12 08:04:00,
2013-06-12 04:09:00,66.0,55.0,29.65,ENE,67,7.0,7.0,69,0.00,,,0.00,TxWx,2013-06-12 08:09:00,
2013-06-12 04:15:00,66.0,55.0,29.65,SE,135,6.0,8.0,69,0.00,,,0.00,TxWx,2013-06-12 08:15:00,
2013-06-12 04:20:00,66.0,55.0,29.65,East,90,6.0,6.0,68,0.00,,,0.00,TxWx,2013-06-12 08:20:00,
2013-06-12 04:25:00,66.0,55.0,29.65,ENE,67,5.0,11.0,68,0.00,,,0.00,TxWx,2013-06-12 08:25:00,
2013-06-12 04:30:00,66.0,55.0,29.65,East,90,4.0,7.0,68,0.00,,,0.00,TxWx,2013-06-12 08:30:00,
2013-06-12 04:35:00,66.0,55.0,29.65,ESE,112,13.0,13.0,69,0.00,,,0.00,TxWx,2013-06-12 08:35:00,
2013-06-12 04:41:00,66.0,56.0,29.65,SSE,157,6.0,6.0,69,0.00,,,0.00,TxWx,2013-06-12 08:41:00,
2013-06-12 04:46:00,65.0,55.0,29.66,East,90,4.0,5.0,69,0.00,,,0.00,TxWx,2013-06-12 08:46:00,
2013-06-12 04:52:00,65.0,55.0,29.66,East,90,7.0,7.0,69,0.00,,,0.00,TxWx,2013-06-12 08:52:00,
2013-06-12 04:57:00,65.0,55.0,29.66,SE,135,6.0,8.0,70,0.00,,,0.00,TxWx,2013-06-12 08:57:00,
2013-06-12 05:02:00,65.0,55.0,29.66,East,90,6.0,6.0,70,0.00,,,0.00,TxWx,2013-06-12 09:02:00,
2013-06-12 05:07:00,65.0,55.0,29.66,ENE,67,9.0,10.0,69,0.00,,,0.00,TxWx,2013-06-12 09:07:00,
2013-06-12 05:13:00,65.0,55.0,29.66,ENE,67,6.0,8.0,69,0.00,,,0.00,TxWx,2013-06-12 09:13:00,
2013-06-12 05:18:00,65.0,55.0,29.66,East,90,8.0,9.0,69,0.00,,,0.00,TxWx,2013-06-12 09:18:00,
2013-06-12 05:23:00,65.0,55.0,29.67,NE,45,6.0,8.0,69,0.00,,,0.00,TxWx,2013-06-12 09:23:00,
2013-06-12 05:28:00,65.0,55.0,29.67,SE,135,8.0,13.0,70,0.00,,,0.00,TxWx,2013-06-12 09:28:00,
2013-06-12 05:34:00,65.0,55.0,29.68,SE,135,5.0,8.0,70,0.00,,,0.00,TxWx,2013-06-12 09:34:00,
2013-06-12 05:39:00,65.0,55.0,29.67,SSE,157,13.0,13.0,70,0.00,,,0.00,TxWx,2013-06-12 09:39:00,
2013-06-12 05:44:00,65.0,55.0,29.68,SE,135,5.0,10.0,70,0.00,,,0.00,TxWx,2013-06-12 09:44:00,
2013-06-12 05:49:00,65.0,55.0,29.68,ENE,67,4.0,5.0,70,0.00,,,0.00,TxWx,2013-06-12 09:49:00,
2013-06-12 05:54:00,65.0,55.0,29.68,SSE,157,5.0,6.0,70,0.00,,,0.00,TxWx,2013-06-12 09:54:00,
2013-06-12 05:59:00,65.0,55.0,29.69,South,180,8.0,8.0,70,0.00,,,0.00,TxWx,2013-06-12 09:59:00,
2013-06-12 06:05:00,65.0,55.0,29.69,SSE,157,5.0,10.0,71,0.00,,,0.00,TxWx,2013-06-12 10:05:00,
2013-06-12 06:10:00,65.0,55.0,29.69,South,180,8.0,8.0,71,0.00,,,0.00,TxWx,2013-06-12 10:10:00,
2013-06-12 06:15:00,65.0,55.0,29.69,ESE,112,5.0,5.0,71,0.00,,,0.00,TxWx,2013-06-12 10:15:00,
2013-06-12 06:21:00,65.0,55.0,29.69,South,180,6.0,11.0,71,0.00,,,0.00,TxWx,2013-06-12 10:21:00,
2013-06-12 06:26:00,65.0,55.0,29.69,South,180,6.0,8.0,71,0.00,,,0.00,TxWx,2013-06-12 10:26:00,
2013-06-12 06:31:00,65.0,55.0,29.69,East,90,6.0,6.0,70,0.00,,,0.00,TxWx,2013-06-12 10:31:00,
2013-06-12 06:36:00,65.0,55.0,29.69,ENE,67,5.0,8.0,70,0.00,,,0.00,TxWx,2013-06-12 10:36:00,
2013-06-12 06:42:00,66.0,56.0,29.69,SE,135,4.0,6.0,70,0.00,,,0.00,TxWx,2013-06-12 10:42:00,
2013-06-12 06:47:00,65.0,55.0,29.69,SE,135,5.0,8.0,70,0.00,,,0.00,TxWx,2013-06-12 10:47:00,
2013-06-12 06:52:00,65.0,55.0,29.70,SW,225,3.0,5.0,70,0.00,,,0.00,TxWx,2013-06-12 10:52:00,
2013-06-12 06:57:00,65.0,55.0,29.70,SE,135,3.0,4.0,70,0.00,,,0.00,TxWx,2013-06-12 10:57:00,
2013-06-12 07:03:00,65.0,55.0,29.70,ESE,112,5.0,5.0,70,0.00,,,0.00,TxWx,2013-06-12 11:03:00,
2013-06-12 07:08:00,66.0,56.0,29.70,South,180,10.0,11.0,69,0.00,,,0.00,TxWx,2013-06-12 11:08:00,
2013-06-12 07:13:00,66.0,55.0,29.70,South,180,4.0,5.0,69,0.00,,,0.00,TxWx,2013-06-12 11:13:00,
2013-06-12 07:18:00,66.0,55.0,29.70,South,180,5.0,6.0,69,0.00,,,0.00,TxWx,2013-06-12 11:18:00,
2013-06-12 07:23:00,66.0,55.0,29.70,East,90,7.0,7.0,68,0.00,,,0.00,TxWx,2013-06-12 11:23:00,
2013-06-12 07:28:00,66.0,55.0,29.70,SE,135,16.0,19.0,68,0.00,,,0.00,TxWx,2013-06-12 11:28:00,
2013-06-12 07:34:00,67.0,56.0,29.70,SE,135,11.0,11.0,67,0.00,,,0.00,TxWx,2013-06-12 11:34:00,
2013-06-12 07:39:00,67.0,56.0,29.70,SE,135,14.0,14.0,67,0.00,,,0.00,TxWx,2013-06-12 11:39:00,
2013-06-12 07:44:00,67.0,55.0,29.70,South,180,6.0,12.0,66,0.00,,,0.00,TxWx,2013-06-12 11:44:00,
2013-06-12 07:49:00,67.0,55.0,29.71,East,90,6.0,10.0,67,0.00,,,0.00,TxWx,2013-06-12 11:49:00,
2013-06-12 07:55:00,67.0,55.0,29.71,SSE,157,8.0,8.0,66,0.00,,,0.00,TxWx,2013-06-12 11:55:00,
2013-06-12 08:00:00,67.0,55.0,29.71,East,90,10.0,15.0,67,0.00,,,0.00,TxWx,2013-06-12 12:00:00,
2013-06-12 08:05:00,67.0,55.0,29.71,ESE,112,8.0,10.0,67,0.00,,,0.00,TxWx,2013-06-12 12:05:00,
2013-06-12 08:10:00,67.0,55.0,29.71,East,90,5.0,6.0,67,0.00,,,0.00,TxWx,2013-06-12 12:10:00,
2013-06-12 08:15:00,67.0,55.0,29.72,SE,135,10.0,14.0,67,0.00,,,0.00,TxWx,2013-06-12 12:15:00,
2013-06-12 08:20:00,68.0,56.0,29.72,SE,135,14.0,16.0,67,0.00,,,0.00,TxWx,2013-06-12 12:20:00,
2013-06-12 08:26:00,68.0,56.0,29.72,SE,135,6.0,7.0,66,0.00,,,0.00,TxWx,2013-06-12 12:26:00,
2013-06-12 08:31:00,68.0,56.0,29.72,South,180,7.0,9.0,66,0.00,,,0.00,TxWx,2013-06-12 12:31:00,
2013-06-12 08:36:00,67.0,55.0,29.72,East,90,9.0,10.0,65,0.00,,,0.00,TxWx,2013-06-12 12:36:00,
2013-06-12 08:42:00,67.0,55.0,29.71,SE,135,13.0,16.0,66,0.00,,,0.00,TxWx,2013-06-12 12:42:00,
2013-06-12 08:47:00,68.0,56.0,29.72,ESE,112,9.0,10.0,66,0.00,,,0.00,TxWx,2013-06-12 12:47:00,
2013-06-12 08:52:00,68.0,56.0,29.72,NNE,22,5.0,10.0,65,0.00,,,0.00,TxWx,2013-06-12 12:52:00,
2013-06-12 08:57:00,68.0,55.0,29.72,East,90,11.0,16.0,64,0.00,,,0.00,TxWx,2013-06-12 12:57:00,
2013-06-12 09:02:00,68.0,55.0,29.72,SSE,157,6.0,9.0,63,0.00,,,0.00,TxWx,2013-06-12 13:02:00,
2013-06-12 09:07:00,68.0,55.0,29.72,SSE,157,10.0,10.0,64,0.00,,,0.00,TxWx,2013-06-12 13:07:00,
2013-06-12 09:13:00,69.0,56.0,29.72,ESE,112,9.0,13.0,63,0.00,,,0.00,TxWx,2013-06-12 13:13:00,
2013-06-12 09:18:00,69.0,56.0,29.72,SSE,157,5.0,9.0,63,0.00,,,0.00,TxWx,2013-06-12 13:18:00,
2013-06-12 09:23:00,69.0,56.0,29.72,SE,135,7.0,7.0,63,0.00,,,0.00,TxWx,2013-06-12 13:23:00,
2013-06-12 09:28:00,69.0,56.0,29.72,SSW,202,12.0,13.0,63,0.00,,,0.00,TxWx,2013-06-12 13:28:00,
2013-06-12 09:33:00,69.0,56.0,29.72,SE,135,8.0,8.0,63,0.00,,,0.00,TxWx,2013-06-12 13:33:00,
2013-06-12 09:39:00,69.0,56.0,29.72,ESE,112,10.0,13.0,63,0.00,,,0.00,TxWx,2013-06-12 13:39:00,
2013-06-12 09:44:00,69.0,56.0,29.73,SE,135,3.0,5.0,63,0.00,,,0.00,TxWx,2013-06-12 13:44:00,
2013-06-12 09:49:00,69.0,55.0,29.72,ENE,67,8.0,14.0,62,0.00,,,0.00,TxWx,2013-06-12 13:49:00,
2013-06-12 09:55:00,69.0,56.0,29.73,SSE,157,5.0,6.0,63,0.00,,,0.00,TxWx,2013-06-12 13:55:00,
2013-06-12 10:00:00,69.0,55.0,29.72,SSE,157,7.0,10.0,61,0.00,,,0.00,TxWx,2013-06-12 14:00:00,
2013-06-12 10:05:00,69.0,55.0,29.72,SSE,157,7.0,8.0,62,0.00,,,0.00,TxWx,2013-06-12 14:05:00,
2013-06-12 10:10:00,70.0,56.0,29.72,East,90,7.0,7.0,61,0.00,,,0.00,TxWx,2013-06-12 14:10:00,
2013-06-12 10:15:00,70.0,55.0,29.73,SE,135,13.0,13.0,60,0.00,,,0.00,TxWx,2013-06-12 14:15:00,
2013-06-12 10:21:00,70.0,55.0,29.73,ENE,67,5.0,6.0,60,0.00,,,0.00,TxWx,2013-06-12 14:21:00,
2013-06-12 10:26:00,69.0,54.0,29.73,ESE,112,8.0,8.0,60,0.00,,,0.00,TxWx,2013-06-12 14:26:00,
2013-06-12 10:31:00,70.0,56.0,29.73,East,90,6.0,8.0,61,0.00,,,0.00,TxWx,2013-06-12 14:31:00,
2013-06-12 10:37:00,70.0,55.0,29.73,ESE,112,6.0,8.0,60,0.00,,,0.00,TxWx,2013-06-12 14:37:00,
2013-06-12 10:42:00,71.0,56.0,29.73,South,180,6.0,6.0,59,0.00,,,0.00,TxWx,2013-06-12 14:42:00,
2013-06-12 10:47:00,70.0,55.0,29.73,ESE,112,6.0,8.0,59,0.00,,,0.00,TxWx,2013-06-12 14:47:00,
2013-06-12 10:52:00,70.0,55.0,29.74,East,90,6.0,6.0,59,0.00,,,0.00,TxWx,2013-06-12 14:52:00,
2013-06-12 10:58:00,70.0,55.0,29.74,South,180,4.0,6.0,59,0.00,,,0.00,TxWx,2013-06-12 14:58:00,
2013-06-12 11:03:00,70.0,55.0,29.74,SE,135,11.0,11.0,59,0.00,,,0.00,TxWx,2013-06-12 15:03:00,
2013-06-12 11:08:00,70.0,55.0,29.75,East,90,9.0,14.0,59,0.00,,,0.00,TxWx,2013-06-12 15:08:00,
2013-06-12 11:14:00,70.0,55.0,29.75,SSE,157,8.0,10.0,60,0.00,,,0.00,TxWx,2013-06-12 15:14:00,
2013-06-12 11:19:00,70.0,56.0,29.75,SSE,157,6.0,6.0,61,0.00,,,0.00,TxWx,2013-06-12 15:19:00,
2013-06-12 11:25:00,70.0,56.0,29.76,SE,135,11.0,13.0,61,0.00,,,0.00,TxWx,2013-06-12 15:25:00,
2013-06-12 11:30:00,70.0,55.0,29.76,SE,135,13.0,15.0,60,0.00,,,0.00,TxWx,2013-06-12 15:30:00,
2013-06-12 11:35:00,70.0,55.0,29.76,East,90,19.0,19.0,60,0.00,,,0.00,TxWx,2013-06-12 15:35:00,
2013-06-12 11:40:00,70.0,55.0,29.76,East,90,10.0,16.0,60,0.00,,,0.00,TxWx,2013-06-12 15:40:00,
2013-06-12 11:46:00,70.0,55.0,29.76,ESE,112,10.0,12.0,60,0.00,,,0.00,TxWx,2013-06-12 15:46:00,
2013-06-12 11:51:00,70.0,56.0,29.76,ESE,112,5.0,8.0,61,0.00,,,0.00,TxWx,2013-06-12 15:51:00,
2013-06-12 11:56:00,70.0,56.0,29.75,SE,135,3.0,5.0,61,0.00,,,0.00,TxWx,2013-06-12 15:56:00,
2013-06-12 12:01:00,71.0,56.0,29.75,SSE,157,5.0,6.0,60,0.00,,,0.00,TxWx,2013-06-12 16:01:00,
2013-06-12 12:07:00,72.0,56.0,29.76,East,90,13.0,13.0,57,0.00,,,0.00,TxWx,2013-06-12 16:07:00,
2013-06-12 12:12:00,72.0,55.0,29.76,SSE,157,4.0,8.0,56,0.00,,,0.00,TxWx,2013-06-12 16:12:00,
2013-06-12 12:17:00,72.0,55.0,29.76,South,180,6.0,8.0,55,0.00,,,0.00,TxWx,2013-06-12 16:17:00,
2013-06-12 12:22:00,72.0,55.0,29.76,South,180,8.0,10.0,56,0.00,,,0.00,TxWx,2013-06-12 16:22:00,
2013-06-12 12:28:00,72.0,55.0,29.76,SSE,157,6.0,6.0,56,0.00,,,0.00,TxWx,2013-06-12 16:28:00,
2013-06-12 12:33:00,71.0,55.0,29.76,SE,135,10.0,10.0,57,0.00,,,0.00,TxWx,2013-06-12 16:33:00,
2013-06-12 12:38:00,71.0,55.0,29.77,SE,135,9.0,10.0,58,0.00,,,0.00,TxWx,2013-06-12 16:38:00,
2013-06-12 12:43:00,72.0,55.0,29.77,East,90,11.0,12.0,56,0.00,,,0.00,TxWx,2013-06-12 16:43:00,
2013-06-12 12:48:00,72.0,55.0,29.77,South,180,5.0,10.0,55,0.00,,,0.00,TxWx,2013-06-12 16:48:00,
2013-06-12 12:54:00,72.0,55.0,29.77,ESE,112,10.0,10.0,56,0.00,,,0.00,TxWx,2013-06-12 16:54:00,
2013-06-12 12:59:00,73.0,55.0,29.76,SSE,157,10.0,12.0,54,0.00,,,0.00,TxWx,2013-06-12 16:59:00,
2013-06-12 13:04:00,73.0,55.0,29.76,South,180,6.0,8.0,54,0.00,,,0.00,TxWx,2013-06-12 17:04:00,
2013-06-12 13:09:00,73.0,55.0,29.76,South,180,6.0,8.0,54,0.00,,,0.00,TxWx,2013-06-12 17:09:00,
2013-06-12 13:14:00,72.0,55.0,29.77,East,90,6.0,9.0,55,0.00,,,0.00,TxWx,2013-06-12 17:14:00,
2013-06-12 13:19:00,72.0,55.0,29.77,SE,135,10.0,11.0,56,0.00,,,0.00,TxWx,2013-06-12 17:19:00,
2013-06-12 13:25:00,72.0,55.0,29.76,ESE,112,13.0,14.0,56,0.00,,,0.00,TxWx,2013-06-12 17:25:00,
2013-06-12 13:30:00,73.0,56.0,29.76,South,180,9.0,13.0,55,0.00,,,0.00,TxWx,2013-06-12 17:30:00,
2013-06-12 13:35:00,73.0,56.0,29.76,South,180,5.0,5.0,55,0.00,,,0.00,TxWx,2013-06-12 17:35:00,
2013-06-12 13:40:00,74.0,56.0,29.75,South,180,10.0,10.0,54,0.00,,,0.00,TxWx,2013-06-12 17:40:00,
2013-06-12 13:45:00,74.0,56.0,29.76,SSE,157,10.0,10.0,54,0.00,,,0.00,TxWx,2013-06-12 17:45:00,
2013-06-12 13:50:00,73.0,55.0,29.76,ESE,112,8.0,12.0,54,0.00,,,0.00,TxWx,2013-06-12 17:50:00,
2013-06-12 13:55:00,73.0,56.0,29.77,South,180,6.0,9.0,55,0.00,,,0.00,TxWx,2013-06-12 17:55:00,
2013-06-12 14:00:00,74.0,55.0,29.76,SE,135,8.0,10.0,53,0.00,,,0.00,TxWx,2013-06-12 18:00:00,
2013-06-12 14:05:00,74.0,55.0,29.76,SSE,157,6.0,6.0,53,0.00,,,0.00,TxWx,2013-06-12 18:05:00,
2013-06-12 14:11:00,74.0,56.0,29.76,SSE,157,7.0,7.0,53,0.00,,,0.00,TxWx,2013-06-12 18:11:00,
2013-06-12 14:16:00,75.0,57.0,29.76,ESE,112,11.0,11.0,53,0.00,,,0.00,TxWx,2013-06-12 18:16:00,
2013-06-12 14:21:00,75.0,56.0,29.76,SE,135,8.0,11.0,51,0.00,,,0.00,TxWx,2013-06-12 18:21:00,
2013-06-12 14:26:00,75.0,55.0,29.76,SE,135,3.0,5.0,51,0.00,,,0.00,TxWx,2013-06-12 18:26:00,
2013-06-12 14:32:00,75.0,54.0,29.76,SE,135,5.0,7.0,49,0.00,,,0.00,TxWx,2013-06-12 18:32:00,
2013-06-12 14:37:00,75.0,56.0,29.76,NE,45,3.0,5.0,51,0.00,,,0.00,TxWx,2013-06-12 18:37:00,
2013-06-12 14:42:00,75.0,55.0,29.76,SSE,157,5.0,6.0,50,0.00,,,0.00,TxWx,2013-06-12 18:42:00,
2013-06-12 14:47:00,75.0,54.0,29.76,South,180,11.0,17.0,49,0.00,,,0.00,TxWx,2013-06-12 18:47:00,
2013-06-12 14:52:00,76.0,55.0,29.76,SSE,157,13.0,13.0,49,0.00,,,0.00,TxWx,2013-06-12 18:52:00,
2013-06-12 14:57:00,76.0,55.0,29.76,SSE,157,9.0,9.0,49,0.00,,,0.00,TxWx,2013-06-12 18:57:00,
2013-06-12 15:01:00,60.0,57.0,29.79,South,180,0.0,0.0,89,0.00,,,0.00,TxWx,2013-06-12 19:01:00,
2013-06-12 15:02:00,60.0,57.0,29.79,East,90,1.0,1.0,89,0.00,,,0.00,TxWx,2013-06-12 19:02:00,
2013-06-12 15:03:00,76.0,54.0,29.76,SE,135,5.0,8.0,47,0.00,,,0.00,TxWx,2013-06-12 19:03:00,
2013-06-12 15:04:00,60.0,57.0,29.79,East,90,1.0,1.0,89,0.00,,,0.00,TxWx,2013-06-12 19:04:00,
2013-06-12 15:05:00,60.0,57.0,29.79,East,90,1.0,1.0,89,0.00,,,0.00,TxWx,2013-06-12 19:05:00,
2013-06-12 15:06:00,60.0,57.0,29.79,East,90,0.0,0.0,89,0.00,,,0.00,TxWx,2013-06-12 19:06:00,
2013-06-12 15:07:00,60.0,57.0,29.79,ENE,67,0.0,1.0,89,0.00,,,0.00,TxWx,2013-06-12 19:07:00,
2013-06-12 15:08:00,76.0,55.0,29.75,SE,135,4.0,5.0,48,0.00,,,0.00,TxWx,2013-06-12 19:08:00,
2013-06-12 15:09:00,60.0,57.0,29.79,WNW,292,1.0,2.0,89,0.00,,,0.00,TxWx,2013-06-12 19:09:00,
2013-06-12 15:10:00,60.0,57.0,29.79,WNW,292,1.0,1.0,89,0.00,,,0.00,TxWx,2013-06-12 19:10:00,
2013-06-12 15:11:00,60.0,57.0,29.79,WNW,292,1.0,1.0,89,0.00,,,0.00,TxWx,2013-06-12 19:11:00,
2013-06-12 15:12:00,60.0,57.0,29.79,WNW,292,1.0,1.0,89,0.00,,,0.00,TxWx,2013-06-12 19:12:00,
2013-06-12 15:13:00,76.0,54.0,29.75,South,180,6.0,8.0,47,0.00,,,0.00,TxWx,2013-06-12 19:13:00,
2013-06-12 15:14:00,60.0,57.0,29.79,ENE,67,0.0,1.0,89,0.00,,,0.00,TxWx,2013-06-12 19:14:00,
2013-06-12 15:15:00,60.0,57.0,29.79,ENE,67,1.0,2.0,89,0.00,,,0.00,TxWx,2013-06-12 19:15:00,
2013-06-12 15:16:00,60.0,57.0,29.79,ENE,67,1.0,1.0,89,0.00,,,0.00,TxWx,2013-06-12 19:16:00,
2013-06-12 15:17:00,60.0,57.0,29.79,NE,45,1.0,1.0,89,0.00,,,0.00,TxWx,2013-06-12 19:17:00,
2013-06-12 15:18:00,60.0,57.0,29.79,NNE,22,1.0,2.0,89,0.00,,,0.00,TxWx,2013-06-12 19:18:00,
2013-06-12 15:19:00,76.0,55.0,29.75,SW,225,5.0,10.0,48,0.00,,,0.00,TxWx,2013-06-12 19:19:00,
2013-06-12 15:20:00,60.0,57.0,29.79,North,0,3.0,3.0,89,0.00,,,0.00,TxWx,2013-06-12 19:20:00,
2013-06-12 15:21:00,60.0,57.0,29.79,North,0,3.0,3.0,89,0.00,,,0.00,TxWx,2013-06-12 19:21:00,
2013-06-12 15:22:00,60.0,57.0,29.79,NNW,337,2.0,3.0,89,0.00,,,0.00,TxWx,2013-06-12 19:22:00,
2013-06-12 15:23:00,60.0,57.0,29.78,North,0,3.0,3.0,89,0.00,,,0.00,TxWx,2013-06-12 19:23:00,
2013-06-12 15:24:00,76.0,55.0,29.75,SE,135,10.0,12.0,48,0.00,,,0.00,TxWx,2013-06-12 19:24:00,
2013-06-12 15:25:00,60.0,57.0,29.78,North,0,2.0,3.0,89,0.00,,,0.00,TxWx,2013-06-12 19:25:00,
2013-06-12 15:26:00,60.0,57.0,29.78,North,0,2.0,2.0,89,0.00,,,0.00,TxWx,2013-06-12 19:26:00,
2013-06-12 15:27:00,60.0,57.0,29.79,North,0,2.0,2.0,89,0.00,,,0.00,TxWx,2013-06-12 19:27:00,
2013-06-12 15:28:00,60.0,57.0,29.78,North,0,2.0,3.0,89,0.00,,,0.00,TxWx,2013-06-12 19:28:00,
2013-06-12 15:29:00,76.0,55.0,29.75,SE,135,3.0,6.0,48,0.00,,,0.00,TxWx,2013-06-12 19:29:00,
2013-06-12 15:30:00,60.0,57.0,29.78,NE,45,1.0,1.0,89,0.00,,,0.00,TxWx,2013-06-12 19:30:00,
2013-06-12 15:31:00,60.0,57.0,29.79,NE,45,2.0,2.0,89,0.00,,,0.00,TxWx,2013-06-12 19:31:00,
2013-06-12 15:32:00,59.0,56.0,29.79,NNE,22,1.0,2.0,89,0.00,,,0.00,TxWx,2013-06-12 19:32:00,
2013-06-12 15:33:00,59.0,56.0,29.79,North,0,1.0,1.0,90,0.00,,,0.00,TxWx,2013-06-12 19:33:00,
2013-06-12 15:34:00,59.0,56.0,29.79,North,0,1.0,1.0,90,0.00,,,0.00,TxWx,2013-06-12 19:34:00,
2013-06-12 15:35:00,76.0,55.0,29.75,SE,135,7.0,10.0,48,0.00,,,0.00,TxWx,2013-06-12 19:35:00,
2013-06-12 15:36:00,59.0,56.0,29.79,NNW,337,1.0,1.0,90,0.00,,,0.00,TxWx,2013-06-12 19:36:00,
2013-06-12 15:37:00,59.0,56.0,29.79,NW,315,0.0,1.0,90,0.00,,,0.00,TxWx,2013-06-12 19:37:00,
2013-06-12 15:38:00,59.0,56.0,29.79,West,270,1.0,1.0,90,0.00,,,0.00,TxWx,2013-06-12 19:38:00,
2013-06-12 15:39:00,59.0,56.0,29.79,West,270,0.0,1.0,90,0.00,,,0.00,TxWx,2013-06-12 19:39:00,
2013-06-12 15:40:00,76.0,55.0,29.75,South,180,14.0,14.0,49,0.00,,,0.00,TxWx,2013-06-12 19:40:00,
2013-06-12 15:41:00,59.0,56.0,29.79,West,270,0.0,0.0,90,0.00,,,0.00,TxWx,2013-06-12 19:41:00,
2013-06-12 15:42:00,59.0,56.0,29.79,SW,225,1.0,1.0,90,0.00,,,0.00,TxWx,2013-06-12 19:42:00,
2013-06-12 15:43:00,59.0,56.0,29.79,SW,225,0.0,0.0,90,0.00,,,0.00,TxWx,2013-06-12 19:43:00,
2013-06-12 15:45:00,76.0,55.0,29.75,SSE,157,5.0,5.0,49,0.00,,,0.00,TxWx,2013-06-12 19:45:00,
2013-06-12 15:46:00,59.0,56.0,29.79,North,0,2.0,2.0,90,0.00,,,0.00,TxWx,2013-06-12 19:46:00,
2013-06-12 15:47:00,59.0,56.0,29.79,NNW,337,2.0,2.0,90,0.00,,,0.00,TxWx,2013-06-12 19:47:00,
2013-06-12 15:48:00,59.0,56.0,29.79,NNW,337,1.0,2.0,90,0.00,,,0.00,TxWx,2013-06-12 19:48:00,
2013-06-12 15:49:00,59.0,56.0,29.79,NNW,337,1.0,2.0,90,0.00,,,0.00,TxWx,2013-06-12 19:49:00,
2013-06-12 15:50:00,76.0,55.0,29.75,SSE,157,8.0,8.0,48,0.00,,,0.00,TxWx,2013-06-12 19:50:00,
2013-06-12 15:51:00,59.0,56.0,29.79,North,0,2.0,3.0,90,0.00,,,0.00,TxWx,2013-06-12 19:51:00,
2013-06-12 15:52:00,59.0,56.0,29.79,North,0,2.0,2.0,90,0.00,,,0.00,TxWx,2013-06-12 19:52:00,
2013-06-12 15:53:00,59.0,56.0,29.79,North,0,1.0,2.0,90,0.00,,,0.00,TxWx,2013-06-12 19:53:00,
2013-06-12 15:55:00,59.0,56.0,29.79,North,0,1.0,1.0,90,0.00,,,0.00,TxWx,2013-06-12 19:55:00,
2013-06-12 15:56:00,76.0,55.0,29.75,SSE,157,11.0,11.0,48,0.00,,,0.00,TxWx,2013-06-12 19:56:00,
2013-06-12 15:57:00,59.0,56.0,29.79,NNE,22,1.0,1.0,90,0.00,,,0.00,TxWx,2013-06-12 19:57:00,
2013-06-12 16:00:00,59.0,56.0,29.79,NNE,22,1.0,1.0,90,0.00,,,0.00,TxWx,2013-06-12 20:00:00,
2013-06-12 16:01:00,76.0,54.0,29.75,SE,135,10.0,11.0,47,0.00,,,0.00,TxWx,2013-06-12 20:01:00,
2013-06-12 16:02:00,59.0,56.0,29.79,NNW,337,1.0,1.0,90,0.00,,,0.00,TxWx,2013-06-12 20:02:00,
2013-06-12 16:06:00,76.0,54.0,29.75,SSE,157,6.0,11.0,47,0.00,,,0.00,TxWx,2013-06-12 20:06:00,
2013-06-12 16:11:00,77.0,55.0,29.75,SSE,157,8.0,9.0,47,0.00,,,0.00,TxWx,2013-06-12 20:11:00,
2013-06-12 16:16:00,77.0,56.0,29.75,South,180,9.0,10.0,48,0.00,,,0.00,TxWx,2013-06-12 20:16:00,
2013-06-12 16:22:00,77.0,55.0,29.75,SSW,202,9.0,10.0,47,0.00,,,0.00,TxWx,2013-06-12 20:22:00,
2013-06-12 16:27:00,77.0,55.0,29.76,South,180,9.0,10.0,47,0.00,,,0.00,TxWx,2013-06-12 20:27:00,
2013-06-12 16:32:00,77.0,55.0,29.76,South,180,7.0,10.0,47,0.00,,,0.00,TxWx,2013-06-12 20:32:00,
2013-06-12 16:38:00,76.0,55.0,29.76,SSE,157,5.0,6.0,49,0.00,,,0.00,TxWx,2013-06-12 20:38:00,
2013-06-12 16:43:00,76.0,56.0,29.76,SSW,202,5.0,7.0,50,0.00,,,0.00,TxWx,2013-06-12 20:43:00,
2013-06-12 16:48:00,76.0,56.0,29.77,NW,315,2.0,3.0,50,0.00,,,0.00,TxWx,2013-06-12 20:48:00,
2013-06-12 16:53:00,75.0,55.0,29.77,South,180,3.0,5.0,51,0.00,,,0.00,TxWx,2013-06-12 20:53:00,
2013-06-12 16:59:00,75.0,55.0,29.77,South,180,5.0,8.0,51,0.00,,,0.00,TxWx,2013-06-12 20:59:00,
2013-06-12 17:04:00,76.0,56.0,29.77,SSW,202,5.0,5.0,51,0.00,,,0.00,TxWx,2013-06-12 21:04:00,
2013-06-12 17:09:00,76.0,55.0,29.77,South,180,3.0,4.0,49,0.00,,,0.00,TxWx,2013-06-12 21:09:00,
2013-06-12 17:14:00,76.0,55.0,29.77,SSW,202,6.0,6.0,49,0.00,,,0.00,TxWx,2013-06-12 21:14:00,
2013-06-12 17:20:00,76.0,55.0,29.77,SSE,157,3.0,5.0,49,0.00,,,0.00,TxWx,2013-06-12 21:20:00,
2013-06-12 17:25:00,76.0,55.0,29.77,SE,135,5.0,6.0,49,0.00,,,0.00,TxWx,2013-06-12 21:25:00,
2013-06-12 17:30:00,76.0,55.0,29.77,WSW,247,6.0,7.0,49,0.00,,,0.00,TxWx,2013-06-12 21:30:00,
2013-06-12 17:35:00,76.0,55.0,29.77,SSW,202,5.0,5.0,49,0.00,,,0.00,TxWx,2013-06-12 21:35:00,
2013-06-12 17:40:00,76.0,56.0,29.77,SSW,202,3.0,3.0,50,0.00,,,0.00,TxWx,2013-06-12 21:40:00,
2013-06-12 17:46:00,76.0,55.0,29.77,South,180,4.0,4.0,49,0.00,,,0.00,TxWx,2013-06-12 21:46:00,
2013-06-12 17:51:00,76.0,55.0,29.77,ESE,112,1.0,2.0,49,0.00,,,0.00,TxWx,2013-06-12 21:51:00,
2013-06-12 17:56:00,76.0,56.0,29.76,SE,135,3.0,3.0,50,0.00,,,0.00,TxWx,2013-06-12 21:56:00,
2013-06-12 18:01:00,76.0,57.0,29.76,SSE,157,4.0,4.0,51,0.00,,,0.00,TxWx,2013-06-12 22:01:00,
2013-06-12 18:07:00,76.0,56.0,29.76,South,180,3.0,4.0,50,0.00,,,0.00,TxWx,2013-06-12 22:07:00,
2013-06-12 18:12:00,76.0,56.0,29.76,ESE,112,3.0,5.0,50,0.00,,,0.00,TxWx,2013-06-12 22:12:00,
2013-06-12 18:18:00,76.0,57.0,29.76,SE,135,1.0,2.0,52,0.00,,,0.00,TxWx,2013-06-12 22:18:00,
2013-06-12 18:23:00,76.0,58.0,29.76,ESE,112,1.0,1.0,53,0.00,,,0.00,TxWx,2013-06-12 22:23:00,
2013-06-12 18:28:00,76.0,59.0,29.76,ESE,112,1.0,1.0,57,0.00,,,0.00,TxWx,2013-06-12 22:28:00,
2013-06-12 18:33:00,76.0,59.0,29.76,East,90,1.0,1.0,57,0.00,,,0.00,TxWx,2013-06-12 22:33:00,
2013-06-12 18:39:00,76.0,60.0,29.76,SE,135,1.0,1.0,57,0.00,,,0.00,TxWx,2013-06-12 22:39:00,
2013-06-12 18:44:00,76.0,59.0,29.76,ENE,67,1.0,2.0,55,0.00,,,0.00,TxWx,2013-06-12 22:44:00,
2013-06-12 18:49:00,76.0,58.0,29.76,SE,135,2.0,3.0,55,0.00,,,0.00,TxWx,2013-06-12 22:49:00,
2013-06-12 18:55:00,76.0,58.0,29.77,SE,135,1.0,2.0,53,0.00,,,0.00,TxWx,2013-06-12 22:55:00,
2013-06-12 19:00:00,76.0,58.0,29.77,SE,135,2.0,2.0,53,0.00,,,0.00,TxWx,2013-06-12 23:00:00,
2013-06-12 19:06:00,76.0,58.0,29.77,SSE,157,2.0,2.0,53,0.00,,,0.00,TxWx,2013-06-12 23:06:00,
2013-06-12 19:11:00,76.0,58.0,29.77,ENE,67,1.0,1.0,54,0.00,,,0.00,TxWx,2013-06-12 23:11:00,
2013-06-12 19:16:00,76.0,59.0,29.77,NNE,22,1.0,1.0,56,0.00,,,0.00,TxWx,2013-06-12 23:16:00,
2013-06-12 19:22:00,76.0,59.0,29.78,NNE,22,1.0,1.0,56,0.00,,,0.00,TxWx,2013-06-12 23:22:00,
2013-06-12 19:27:00,75.0,59.0,29.78,North,0,1.0,1.0,58,0.00,,,0.00,TxWx,2013-06-12 23:27:00,
2013-06-12 19:33:00,74.0,58.0,29.78,NNE,22,0.0,1.0,57,0.00,,,0.00,TxWx,2013-06-12 23:33:00,
2013-06-12 19:38:00,74.0,58.0,29.78,NE,45,1.0,1.0,58,0.00,,,0.00,TxWx,2013-06-12 23:38:00,
2013-06-12 19:43:00,73.0,58.0,29.78,NW,315,0.0,1.0,60,0.00,,,0.00,TxWx,2013-06-12 23:43:00,
2013-06-12 19:48:00,73.0,58.0,29.79,ENE,67,0.0,1.0,60,0.00,,,0.00,TxWx,2013-06-12 23:48:00,
2013-06-12 19:54:00,72.0,58.0,29.78,North,0,1.0,1.0,61,0.00,,,0.00,TxWx,2013-06-12 23:54:00,
2013-06-12 19:59:00,71.0,57.0,29.79,NNE,22,1.0,1.0,62,0.00,,,0.00,TxWx,2013-06-12 23:59:00,
2013-06-12 20:04:00,71.0,58.0,29.79,North,0,1.0,2.0,64,0.00,,,0.00,TxWx,2013-06-13 00:04:00,
2013-06-12 20:09:00,70.0,58.0,29.79,North,0,1.0,2.0,66,0.00,,,0.00,TxWx,2013-06-13 00:09:00,
2013-06-12 20:15:00,69.0,58.0,29.79,NNW,337,2.0,2.0,68,0.00,,,0.00,TxWx,2013-06-13 00:15:00,
2013-06-12 20:20:00,69.0,59.0,29.79,NNE,22,1.0,1.0,70,0.00,,,0.00,TxWx,2013-06-13 00:20:00,
2013-06-12 20:25:00,68.0,58.0,29.79,NNE,22,1.0,1.0,71,0.00,,,0.00,TxWx,2013-06-13 00:25:00,
2013-06-12 20:30:00,68.0,59.0,29.79,NNW,337,1.0,1.0,72,0.00,,,0.00,TxWx,2013-06-13 00:30:00,
2013-06-12 20:35:00,67.0,58.0,29.79,North,0,1.0,1.0,73,0.00,,,0.00,TxWx,2013-06-13 00:35:00,
2013-06-12 20:40:00,67.0,58.0,29.79,NW,315,0.0,1.0,74,0.00,,,0.00,TxWx,2013-06-13 00:40:00,
2013-06-12 20:46:00,66.0,58.0,29.79,NNW,337,1.0,1.0,75,0.00,,,0.00,TxWx,2013-06-13 00:46:00,
2013-06-12 20:51:00,66.0,58.0,29.79,North,0,2.0,2.0,76,0.00,,,0.00,TxWx,2013-06-13 00:51:00,
2013-06-12 20:56:00,65.0,57.0,29.79,NNW,337,1.0,2.0,77,0.00,,,0.00,TxWx,2013-06-13 00:56:00,
2013-06-12 21:01:00,65.0,58.0,29.79,NW,315,1.0,1.0,77,0.00,,,0.00,TxWx,2013-06-13 01:01:00,
2013-06-12 21:07:00,65.0,58.0,29.79,South,180,1.0,1.0,78,0.00,,,0.00,TxWx,2013-06-13 01:07:00,
2013-06-12 21:12:00,65.0,58.0,29.79,ESE,112,0.0,1.0,79,0.00,,,0.00,TxWx,2013-06-13 01:12:00,
2013-06-12 21:17:00,64.0,57.0,29.79,NNE,22,1.0,1.0,79,0.00,,,0.00,TxWx,2013-06-13 01:17:00,
2013-06-12 21:22:00,64.0,58.0,29.79,NNE,22,0.0,0.0,80,0.00,,,0.00,TxWx,2013-06-13 01:22:00,
2013-06-12 21:27:00,64.0,58.0,29.80,NW,315,0.0,0.0,80,0.00,,,0.00,TxWx,2013-06-13 01:27:00,
2013-06-12 21:32:00,63.0,57.0,29.80,NW,315,0.0,0.0,80,0.00,,,0.00,TxWx,2013-06-13 01:32:00,
2013-06-12 21:38:00,63.0,57.0,29.80,North,0,0.0,0.0,81,0.00,,,0.00,TxWx,2013-06-13 01:38:00,
2013-06-12 21:43:00,63.0,57.0,29.80,NNW,337,1.0,1.0,81,0.00,,,0.00,TxWx,2013-06-13 01:43:00,
2013-06-12 21:48:00,63.0,57.0,29.80,NNW,337,1.0,2.0,81,0.00,,,0.00,TxWx,2013-06-13 01:48:00,
2013-06-12 21:54:00,63.0,57.0,29.80,North,0,1.0,1.0,82,0.00,,,0.00,TxWx,2013-06-13 01:54:00,
2013-06-12 21:59:00,63.0,57.0,29.80,North,0,1.0,1.0,82,0.00,,,0.00,TxWx,2013-06-13 01:59:00,
2013-06-12 22:04:00,62.0,57.0,29.81,NE,45,0.0,1.0,83,0.00,,,0.00,TxWx,2013-06-13 02:04:00,
2013-06-12 22:09:00,62.0,57.0,29.81,ENE,67,0.0,0.0,83,0.00,,,0.00,TxWx,2013-06-13 02:09:00,
2013-06-12 22:15:00,62.0,57.0,29.81,SSW,202,1.0,1.0,83,0.00,,,0.00,TxWx,2013-06-13 02:15:00,
2013-06-12 22:20:00,62.0,57.0,29.81,SSW,202,1.0,1.0,84,0.00,,,0.00,TxWx,2013-06-13 02:20:00,
2013-06-12 22:25:00,62.0,57.0,29.81,SE,135,0.0,1.0,84,0.00,,,0.00,TxWx,2013-06-13 02:25:00,
2013-06-12 22:30:00,62.0,57.0,29.80,North,0,0.0,0.0,85,0.00,,,0.00,TxWx,2013-06-13 02:30:00,
2013-06-12 22:36:00,62.0,57.0,29.80,NNW,337,1.0,1.0,85,0.00,,,0.00,TxWx,2013-06-13 02:36:00,
2013-06-12 22:41:00,61.0,56.0,29.80,NW,315,1.0,1.0,85,0.00,,,0.00,TxWx,2013-06-13 02:41:00,
2013-06-12 22:46:00,61.0,56.0,29.80,WSW,247,0.0,1.0,85,0.00,,,0.00,TxWx,2013-06-13 02:46:00,
2013-06-12 22:52:00,61.0,57.0,29.80,ESE,112,1.0,1.0,86,0.00,,,0.00,TxWx,2013-06-13 02:52:00,
2013-06-12 22:57:00,61.0,57.0,29.80,ESE,112,0.0,0.0,86,0.00,,,0.00,TxWx,2013-06-13 02:57:00,
2013-06-12 23:02:00,61.0,57.0,29.79,ENE,67,1.0,1.0,86,0.00,,,0.00,TxWx,2013-06-13 03:02:00,
2013-06-12 23:07:00,61.0,57.0,29.79,WSW,247,0.0,0.0,86,0.00,,,0.00,TxWx,2013-06-13 03:07:00,
2013-06-12 23:13:00,61.0,57.0,29.79,NNE,22,2.0,2.0,87,0.00,,,0.00,TxWx,2013-06-13 03:13:00,
2013-06-12 23:18:00,61.0,57.0,29.79,East,90,0.0,1.0,87,0.00,,,0.00,TxWx,2013-06-13 03:18:00,
2013-06-12 23:23:00,61.0,57.0,29.79,North,0,2.0,2.0,87,0.00,,,0.00,TxWx,2013-06-13 03:23:00,
2013-06-12 23:28:00,61.0,57.0,29.79,NNW,337,2.0,3.0,87,0.00,,,0.00,TxWx,2013-06-13 03:28:00,
2013-06-12 23:33:00,61.0,57.0,29.79,NE,45,1.0,1.0,87,0.00,,,0.00,TxWx,2013-06-13 03:33:00,
2013-06-12 23:38:00,61.0,57.0,29.78,ENE,67,1.0,1.0,88,0.00,,,0.00,TxWx,2013-06-13 03:38:00,
2013-06-12 23:43:00,61.0,57.0,29.79,NW,315,1.0,1.0,88,0.00,,,0.00,TxWx,2013-06-13 03:43:00,
2013-06-12 23:49:00,60.0,56.0,29.79,West,270,1.0,1.0,88,0.00,,,0.00,TxWx,2013-06-13 03:49:00,
2013-06-12 23:54:00,60.0,56.0,29.79,WNW,292,1.0,1.0,88,0.00,,,0.00,TxWx,2013-06-13 03:54:00,
2013-06-12 23:59:00,60.0,57.0,29.79,SSW,202,0.0,1.0,89,0.00,,,0.00,TxWx,2013-06-13 03:59:00,